This is the latest recevied weather packets stored in our database for station/object KC8VEU. If no packets are shown the sender has not sent any weather packets the latest 10 day(s).
| Time | Temp. | Humidity | Pressure | Rain* | Wind** | Luminosity | Snow |
|---|---|---|---|---|---|---|---|
| 1777465516 | 2.78° C | 84% | 1007.1 hPa | 0 mm | - | - | - |
| 1777463136 | 1.67° C | 87% | 1006.7 hPa | 0 mm | - | - | - |
| 1777462516 | 1.67° C | 87% | 1006.5 hPa | 0 mm | - | - | - |
| 1777455916 | 1.11° C | 89% | 1006.1 hPa | 0 mm | - | - | - |
| 1777453216 | 1.67° C | 89% | 1005.7 hPa | 0 mm | - | - | - |
| 1777450836 | 1.67° C | 88% | 1005.7 hPa | 0 mm | - | - | - |
| 1777449016 | 2.22° C | 88% | 1005.6 hPa | 0 mm | - | - | - |
| 1777443618 | 2.22° C | 88% | 1005.9 hPa | 0 mm | - | - | - |
| 1777443018 | 2.78° C | 87% | 1006 hPa | 0 mm | - | - | - |
| 1777441818 | 2.78° C | 88% | 1005.8 hPa | 0 mm | - | - | - |
| 1777437617 | 3.33° C | 86% | 1005.9 hPa | 0 mm | - | - | - |
| 1777435218 | 3.89° C | 84% | 1005.8 hPa | 0 mm | - | - | - |
| 1777429516 | 5° C | 81% | 1005.5 hPa | 0 mm | - | - | - |
| 1777424716 | 5.56° C | 80% | 1004.5 hPa | 0 mm | - | - | - |
| 1777419316 | 5.56° C | 77% | 1003.8 hPa | 0 mm | - | - | - |
| 1777410336 | 6.67° C | 75% | 1001.5 hPa | 0 mm | - | - | - |
| 1777408516 | 6.67° C | 74% | 1000.7 hPa | 0 mm | - | - | - |
| 1777407916 | 6.11° C | 76% | 1000.5 hPa | 0 mm | - | - | - |
| 1777403716 | 6.11° C | 76% | 999.3 hPa | 0 mm | - | - | - |
| 1777400716 | 5.56° C | 81% | 998.9 hPa | 0 mm | - | - | - |
| 1777398316 | 5° C | 83% | 998.5 hPa | 0 mm | - | - | - |
| 1777396516 | 5° C | 85% | 998.3 hPa | 0 mm | - | - | - |
| 1777393516 | 3.89° C | 87% | 997 hPa | 0 mm | - | - | - |
| 1777392916 | 3.89° C | 87% | 996.7 hPa | 0 mm | - | - | - |
| 1777389316 | 3.33° C | 89% | 995.4 hPa | 0 mm | - | - | - |
* Rain latest hour (hover to see other rain measurements)
** Current wind speed in m/s (hover to see current wind gust speed)